FNUG

Details ICAO FNUG (UGO)
Name UIGE
Region Angola
Timezone Africa/Luanda (UTC+1.0)
Plans Departing 0
Arriving 0
Stats Elevation 2,720 ft / 829 m (AMSL)
Location -7.603065° 15.027821°
Runways 1
Magnetic Variation 2.431° W
Sunrise 2017-12-16 04:40:01 UTC / 2017-12-16 05:40:01 Local
Sunset 2017-12-16 17:13:45 UTC / 2017-12-16 18:13:45 Local
Advertisement - Login to hide

Runways

ID Width Length Bearing (true) Bearing (mag) Surface Threshold Offset Overrun Length
01 55 ft / 17 m 6,543 ft / 1,994 m 4.91° 7.34° Asphalt 0 ft / 0 m 0 ft / 0 m
19 55 ft / 17 m 6,543 ft / 1,994 m 184.91° 187.34° Asphalt 0 ft / 0 m 0 ft / 0 m

Map

Weather


0- 5 10 15 20 25 30 35+ Temperature / ° C

Clouds and Precipitation
Forecast for 2017-12-16 12:00 UTC. Updated 25 minutes ago

Ground ~20,000 ft ~40,000 ft Winds

METAR

FNUG 161100Z 18008KT 9999 SCT020 OVC070 23/20 Q1014

TAF

Not found
Warning: Do not use this data for real-world aviation or navigation. No guarantee of current accuracy is given.